sensor_id;sensor_type;location;lat;lon;timestamp;P1;durP1;ratioP1;P2;durP2;ratioP2
13712;SDS011;6928;50.546;7.120;2022-07-23T00:02:23;8.85;;;6.85;;
13712;SDS011;6928;50.546;7.120;2022-07-23T00:04:50;8.55;;;6.65;;
13712;SDS011;6928;50.546;7.120;2022-07-23T00:07:17;9.00;;;6.70;;
13712;SDS011;6928;50.546;7.120;2022-07-23T00:09:43;9.32;;;6.50;;
13712;SDS011;6928;50.546;7.120;2022-07-23T00:12:10;9.57;;;7.00;;
13712;SDS011;6928;50.546;7.120;2022-07-23T00:14:38;10.43;;;7.10;;
13712;SDS011;6928;50.546;7.120;2022-07-23T00:17:05;10.82;;;6.88;;
13712;SDS011;6928;50.546;7.120;2022-07-23T00:19:32;8.32;;;6.50;;
13712;SDS011;6928;50.546;7.120;2022-07-23T00:21:59;8.98;;;6.00;;
13712;SDS011;6928;50.546;7.120;2022-07-23T00:24:25;8.77;;;6.70;;
13712;SDS011;6928;50.546;7.120;2022-07-23T00:26:52;9.95;;;6.93;;
13712;SDS011;6928;50.546;7.120;2022-07-23T00:29:19;10.45;;;6.55;;
13712;SDS011;6928;50.546;7.120;2022-07-23T00:31:47;8.80;;;7.10;;
13712;SDS011;6928;50.546;7.120;2022-07-23T00:34:14;8.07;;;6.68;;
13712;SDS011;6928;50.546;7.120;2022-07-23T00:36:41;9.65;;;7.30;;
13712;SDS011;6928;50.546;7.120;2022-07-23T00:39:07;11.95;;;7.20;;
13712;SDS011;6928;50.546;7.120;2022-07-23T00:41:34;9.77;;;7.78;;
13712;SDS011;6928;50.546;7.120;2022-07-23T00:44:14;12.35;;;7.40;;
13712;SDS011;6928;50.546;7.120;2022-07-23T00:46:45;8.52;;;6.72;;
13712;SDS011;6928;50.546;7.120;2022-07-23T00:49:19;8.95;;;7.03;;
13712;SDS011;6928;50.546;7.120;2022-07-23T00:51:46;8.77;;;7.00;;
13712;SDS011;6928;50.546;7.120;2022-07-23T00:54:14;10.40;;;7.18;;
13712;SDS011;6928;50.546;7.120;2022-07-23T00:56:42;9.43;;;6.90;;
13712;SDS011;6928;50.546;7.120;2022-07-23T00:59:10;10.85;;;7.72;;
13712;SDS011;6928;50.546;7.120;2022-07-23T01:01:37;13.05;;;7.88;;
13712;SDS011;6928;50.546;7.120;2022-07-23T01:04:06;16.45;;;8.20;;
13712;SDS011;6928;50.546;7.120;2022-07-23T01:06:33;13.40;;;7.88;;
13712;SDS011;6928;50.546;7.120;2022-07-23T01:09:03;12.45;;;8.07;;
13712;SDS011;6928;50.546;7.120;2022-07-23T01:11:31;11.18;;;7.75;;
13712;SDS011;6928;50.546;7.120;2022-07-23T01:14:07;10.23;;;7.82;;
13712;SDS011;6928;50.546;7.120;2022-07-23T01:16:38;10.90;;;7.85;;
13712;SDS011;6928;50.546;7.120;2022-07-23T01:19:06;14.13;;;7.95;;
13712;SDS011;6928;50.546;7.120;2022-07-23T01:21:35;11.90;;;7.88;;
13712;SDS011;6928;50.546;7.120;2022-07-23T01:24:06;16.23;;;8.38;;
13712;SDS011;6928;50.546;7.120;2022-07-23T01:26:33;11.10;;;7.53;;
13712;SDS011;6928;50.546;7.120;2022-07-23T01:29:00;10.85;;;8.13;;
13712;SDS011;6928;50.546;7.120;2022-07-23T01:31:28;10.80;;;7.68;;
13712;SDS011;6928;50.546;7.120;2022-07-23T01:33:56;13.50;;;8.32;;
13712;SDS011;6928;50.546;7.120;2022-07-23T01:36:23;10.90;;;7.85;;
13712;SDS011;6928;50.546;7.120;2022-07-23T01:38:50;13.13;;;8.55;;
13712;SDS011;6928;50.546;7.120;2022-07-23T01:41:19;12.25;;;8.23;;
13712;SDS011;6928;50.546;7.120;2022-07-23T01:43:46;10.10;;;8.32;;
13712;SDS011;6928;50.546;7.120;2022-07-23T01:46:13;14.52;;;8.68;;
13712;SDS011;6928;50.546;7.120;2022-07-23T01:48:39;10.75;;;7.88;;
13712;SDS011;6928;50.546;7.120;2022-07-23T01:51:06;10.93;;;8.38;;
13712;SDS011;6928;50.546;7.120;2022-07-23T01:53:33;12.02;;;8.52;;
13712;SDS011;6928;50.546;7.120;2022-07-23T01:56:00;9.80;;;7.75;;
13712;SDS011;6928;50.546;7.120;2022-07-23T01:58:29;14.18;;;8.77;;
13712;SDS011;6928;50.546;7.120;2022-07-23T02:00:56;12.60;;;8.70;;
13712;SDS011;6928;50.546;7.120;2022-07-23T02:03:23;11.65;;;8.10;;
13712;SDS011;6928;50.546;7.120;2022-07-23T02:05:50;12.02;;;8.50;;
13712;SDS011;6928;50.546;7.120;2022-07-23T02:08:17;14.27;;;8.18;;
13712;SDS011;6928;50.546;7.120;2022-07-23T02:10:44;11.43;;;8.32;;
13712;SDS011;6928;50.546;7.120;2022-07-23T02:13:11;17.65;;;9.52;;
13712;SDS011;6928;50.546;7.120;2022-07-23T02:15:39;13.15;;;9.15;;
13712;SDS011;6928;50.546;7.120;2022-07-23T02:18:06;13.43;;;9.27;;
13712;SDS011;6928;50.546;7.120;2022-07-23T02:20:33;16.30;;;10.13;;
13712;SDS011;6928;50.546;7.120;2022-07-23T02:23:00;16.83;;;10.02;;
13712;SDS011;6928;50.546;7.120;2022-07-23T02:25:26;14.65;;;9.80;;
13712;SDS011;6928;50.546;7.120;2022-07-23T02:27:53;16.83;;;10.05;;
13712;SDS011;6928;50.546;7.120;2022-07-23T02:30:20;15.93;;;9.82;;
13712;SDS011;6928;50.546;7.120;2022-07-23T02:32:48;16.10;;;9.88;;
13712;SDS011;6928;50.546;7.120;2022-07-23T02:35:15;15.32;;;10.00;;
13712;SDS011;6928;50.546;7.120;2022-07-23T02:37:41;19.20;;;10.80;;
13712;SDS011;6928;50.546;7.120;2022-07-23T02:40:09;16.77;;;10.60;;
13712;SDS011;6928;50.546;7.120;2022-07-23T02:42:37;18.33;;;11.10;;
13712;SDS011;6928;50.546;7.120;2022-07-23T02:45:04;19.83;;;11.93;;
13712;SDS011;6928;50.546;7.120;2022-07-23T02:47:32;16.42;;;10.52;;
13712;SDS011;6928;50.546;7.120;2022-07-23T02:50:00;14.90;;;11.43;;
13712;SDS011;6928;50.546;7.120;2022-07-23T02:52:27;17.58;;;11.23;;
13712;SDS011;6928;50.546;7.120;2022-07-23T02:54:53;17.55;;;10.57;;
13712;SDS011;6928;50.546;7.120;2022-07-23T02:57:20;17.65;;;11.38;;
13712;SDS011;6928;50.546;7.120;2022-07-23T02:59:47;16.77;;;10.95;;
13712;SDS011;6928;50.546;7.120;2022-07-23T03:02:13;17.27;;;11.05;;
13712;SDS011;6928;50.546;7.120;2022-07-23T03:04:40;14.93;;;10.80;;
13712;SDS011;6928;50.546;7.120;2022-07-23T03:07:09;15.35;;;9.70;;
13712;SDS011;6928;50.546;7.120;2022-07-23T03:09:36;19.95;;;12.10;;
13712;SDS011;6928;50.546;7.120;2022-07-23T03:12:03;18.40;;;11.88;;
13712;SDS011;6928;50.546;7.120;2022-07-23T03:14:30;19.63;;;12.23;;
13712;SDS011;6928;50.546;7.120;2022-07-23T03:16:57;14.48;;;11.07;;
13712;SDS011;6928;50.546;7.120;2022-07-23T03:19:24;16.38;;;10.30;;
13712;SDS011;6928;50.546;7.120;2022-07-23T03:21:51;15.98;;;10.52;;
13712;SDS011;6928;50.546;7.120;2022-07-23T03:24:19;24.70;;;11.40;;
13712;SDS011;6928;50.546;7.120;2022-07-23T03:26:48;14.75;;;10.13;;
13712;SDS011;6928;50.546;7.120;2022-07-23T03:29:15;16.77;;;10.88;;
13712;SDS011;6928;50.546;7.120;2022-07-23T03:31:42;17.65;;;10.85;;
13712;SDS011;6928;50.546;7.120;2022-07-23T03:34:09;14.30;;;10.07;;
13712;SDS011;6928;50.546;7.120;2022-07-23T03:36:35;18.70;;;10.85;;
13712;SDS011;6928;50.546;7.120;2022-07-23T03:39:02;14.95;;;10.65;;
13712;SDS011;6928;50.546;7.120;2022-07-23T03:41:31;14.93;;;9.25;;
13712;SDS011;6928;50.546;7.120;2022-07-23T03:43:57;17.70;;;10.02;;
13712;SDS011;6928;50.546;7.120;2022-07-23T03:46:24;14.93;;;10.25;;
13712;SDS011;6928;50.546;7.120;2022-07-23T03:48:51;16.17;;;10.70;;
13712;SDS011;6928;50.546;7.120;2022-07-23T03:51:17;17.92;;;11.57;;
13712;SDS011;6928;50.546;7.120;2022-07-23T03:53:45;15.52;;;10.75;;
13712;SDS011;6928;50.546;7.120;2022-07-23T03:56:14;17.15;;;10.88;;
13712;SDS011;6928;50.546;7.120;2022-07-23T03:58:42;16.67;;;10.55;;
13712;SDS011;6928;50.546;7.120;2022-07-23T04:01:08;16.25;;;10.98;;
13712;SDS011;6928;50.546;7.120;2022-07-23T04:03:37;20.48;;;10.73;;
13712;SDS011;6928;50.546;7.120;2022-07-23T04:06:04;16.80;;;10.15;;
13712;SDS011;6928;50.546;7.120;2022-07-23T04:08:31;14.65;;;10.15;;
13712;SDS011;6928;50.546;7.120;2022-07-23T04:10:58;16.63;;;10.63;;
13712;SDS011;6928;50.546;7.120;2022-07-23T04:13:26;15.50;;;10.25;;
13712;SDS011;6928;50.546;7.120;2022-07-23T04:15:54;17.45;;;10.52;;
13712;SDS011;6928;50.546;7.120;2022-07-23T04:18:21;17.75;;;11.80;;
13712;SDS011;6928;50.546;7.120;2022-07-23T04:20:48;18.45;;;11.43;;
13712;SDS011;6928;50.546;7.120;2022-07-23T04:23:16;14.77;;;10.52;;
13712;SDS011;6928;50.546;7.120;2022-07-23T04:25:43;18.92;;;11.20;;
13712;SDS011;6928;50.546;7.120;2022-07-23T04:28:10;14.50;;;10.50;;
13712;SDS011;6928;50.546;7.120;2022-07-23T04:30:36;15.23;;;9.30;;
13712;SDS011;6928;50.546;7.120;2022-07-23T04:33:04;16.58;;;10.30;;
13712;SDS011;6928;50.546;7.120;2022-07-23T04:35:32;19.35;;;10.55;;
13712;SDS011;6928;50.546;7.120;2022-07-23T04:37:58;17.10;;;11.35;;
13712;SDS011;6928;50.546;7.120;2022-07-23T04:40:25;16.27;;;10.20;;
13712;SDS011;6928;50.546;7.120;2022-07-23T04:42:52;15.15;;;10.07;;
13712;SDS011;6928;50.546;7.120;2022-07-23T04:45:19;14.55;;;10.13;;
13712;SDS011;6928;50.546;7.120;2022-07-23T04:47:46;17.55;;;10.40;;
13712;SDS011;6928;50.546;7.120;2022-07-23T04:50:14;16.25;;;9.90;;
13712;SDS011;6928;50.546;7.120;2022-07-23T04:52:44;18.05;;;10.13;;
13712;SDS011;6928;50.546;7.120;2022-07-23T04:55:11;14.40;;;10.00;;
13712;SDS011;6928;50.546;7.120;2022-07-23T04:57:37;17.38;;;10.38;;
13712;SDS011;6928;50.546;7.120;2022-07-23T05:00:04;15.68;;;10.50;;
13712;SDS011;6928;50.546;7.120;2022-07-23T05:02:33;17.02;;;10.23;;
13712;SDS011;6928;50.546;7.120;2022-07-23T05:05:00;15.88;;;10.88;;
13712;SDS011;6928;50.546;7.120;2022-07-23T05:07:28;15.73;;;11.35;;
13712;SDS011;6928;50.546;7.120;2022-07-23T05:09:55;14.98;;;11.30;;
13712;SDS011;6928;50.546;7.120;2022-07-23T05:12:21;16.25;;;10.75;;
13712;SDS011;6928;50.546;7.120;2022-07-23T05:14:48;18.55;;;10.07;;
13712;SDS011;6928;50.546;7.120;2022-07-23T05:17:15;14.75;;;10.63;;
13712;SDS011;6928;50.546;7.120;2022-07-23T05:19:42;16.35;;;10.23;;
13712;SDS011;6928;50.546;7.120;2022-07-23T05:22:08;17.90;;;12.07;;
13712;SDS011;6928;50.546;7.120;2022-07-23T05:24:36;18.85;;;11.25;;
13712;SDS011;6928;50.546;7.120;2022-07-23T05:27:03;18.27;;;11.20;;
13712;SDS011;6928;50.546;7.120;2022-07-23T05:29:30;16.58;;;11.30;;
13712;SDS011;6928;50.546;7.120;2022-07-23T05:31:56;14.80;;;10.30;;
13712;SDS011;6928;50.546;7.120;2022-07-23T05:34:23;16.70;;;10.80;;
13712;SDS011;6928;50.546;7.120;2022-07-23T05:36:50;16.48;;;10.18;;
13712;SDS011;6928;50.546;7.120;2022-07-23T05:39:17;14.63;;;9.82;;
13712;SDS011;6928;50.546;7.120;2022-07-23T05:41:45;19.40;;;11.27;;
13712;SDS011;6928;50.546;7.120;2022-07-23T05:44:12;15.98;;;9.77;;
13712;SDS011;6928;50.546;7.120;2022-07-23T05:46:38;17.52;;;10.30;;
13712;SDS011;6928;50.546;7.120;2022-07-23T05:49:05;12.60;;;9.25;;
13712;SDS011;6928;50.546;7.120;2022-07-23T05:51:32;17.50;;;9.73;;
13712;SDS011;6928;50.546;7.120;2022-07-23T05:53:59;14.40;;;9.00;;
13712;SDS011;6928;50.546;7.120;2022-07-23T05:56:25;13.77;;;8.43;;
13712;SDS011;6928;50.546;7.120;2022-07-23T05:58:53;13.20;;;8.88;;
13712;SDS011;6928;50.546;7.120;2022-07-23T06:01:20;15.77;;;9.20;;
13712;SDS011;6928;50.546;7.120;2022-07-23T06:03:47;14.65;;;7.53;;
13712;SDS011;6928;50.546;7.120;2022-07-23T06:06:13;10.63;;;8.23;;
13712;SDS011;6928;50.546;7.120;2022-07-23T06:08:40;13.13;;;8.65;;
13712;SDS011;6928;50.546;7.120;2022-07-23T06:11:07;11.23;;;8.10;;
13712;SDS011;6928;50.546;7.120;2022-07-23T06:13:34;10.30;;;7.63;;
13712;SDS011;6928;50.546;7.120;2022-07-23T06:16:02;12.43;;;7.35;;
13712;SDS011;6928;50.546;7.120;2022-07-23T06:18:30;16.63;;;7.90;;
13712;SDS011;6928;50.546;7.120;2022-07-23T06:20:56;14.68;;;9.50;;
13712;SDS011;6928;50.546;7.120;2022-07-23T06:23:23;14.07;;;8.50;;
13712;SDS011;6928;50.546;7.120;2022-07-23T06:25:50;15.75;;;9.38;;
13712;SDS011;6928;50.546;7.120;2022-07-23T06:28:17;15.13;;;9.52;;
13712;SDS011;6928;50.546;7.120;2022-07-23T06:30:43;15.48;;;9.80;;
13712;SDS011;6928;50.546;7.120;2022-07-23T06:33:11;15.65;;;9.98;;
13712;SDS011;6928;50.546;7.120;2022-07-23T06:35:38;20.42;;;10.63;;
13712;SDS011;6928;50.546;7.120;2022-07-23T06:38:06;16.30;;;9.50;;
13712;SDS011;6928;50.546;7.120;2022-07-23T06:40:32;15.90;;;9.70;;
13712;SDS011;6928;50.546;7.120;2022-07-23T06:42:59;17.50;;;9.85;;
13712;SDS011;6928;50.546;7.120;2022-07-23T06:45:26;16.67;;;10.15;;
13712;SDS011;6928;50.546;7.120;2022-07-23T06:47:53;17.25;;;9.55;;
13712;SDS011;6928;50.546;7.120;2022-07-23T06:50:21;14.10;;;9.20;;
13712;SDS011;6928;50.546;7.120;2022-07-23T06:52:48;11.57;;;8.98;;
13712;SDS011;6928;50.546;7.120;2022-07-23T06:55:15;13.68;;;9.40;;
13712;SDS011;6928;50.546;7.120;2022-07-23T06:57:42;14.50;;;9.00;;
13712;SDS011;6928;50.546;7.120;2022-07-23T07:00:09;14.02;;;8.50;;
13712;SDS011;6928;50.546;7.120;2022-07-23T07:02:37;9.63;;;7.38;;
13712;SDS011;6928;50.546;7.120;2022-07-23T07:05:04;13.93;;;8.73;;
13712;SDS011;6928;50.546;7.120;2022-07-23T07:07:33;13.52;;;7.22;;
13712;SDS011;6928;50.546;7.120;2022-07-23T07:10:00;8.88;;;6.47;;
13712;SDS011;6928;50.546;7.120;2022-07-23T07:12:27;9.95;;;6.75;;
13712;SDS011;6928;50.546;7.120;2022-07-23T07:14:54;12.38;;;6.25;;
13712;SDS011;6928;50.546;7.120;2022-07-23T07:17:21;8.32;;;5.63;;
13712;SDS011;6928;50.546;7.120;2022-07-23T07:19:48;7.85;;;5.03;;
13712;SDS011;6928;50.546;7.120;2022-07-23T07:22:15;5.97;;;4.28;;
13712;SDS011;6928;50.546;7.120;2022-07-23T07:24:43;9.30;;;4.55;;
13712;SDS011;6928;50.546;7.120;2022-07-23T07:27:10;6.95;;;4.43;;
13712;SDS011;6928;50.546;7.120;2022-07-23T07:29:36;6.60;;;4.75;;
13712;SDS011;6928;50.546;7.120;2022-07-23T07:32:03;6.65;;;4.47;;
13712;SDS011;6928;50.546;7.120;2022-07-23T07:34:31;8.30;;;3.83;;
13712;SDS011;6928;50.546;7.120;2022-07-23T07:36:57;7.18;;;3.75;;
13712;SDS011;6928;50.546;7.120;2022-07-23T07:39:24;5.35;;;4.15;;
13712;SDS011;6928;50.546;7.120;2022-07-23T07:41:52;11.48;;;4.18;;
13712;SDS011;6928;50.546;7.120;2022-07-23T07:44:19;7.80;;;3.90;;
13712;SDS011;6928;50.546;7.120;2022-07-23T07:46:45;6.00;;;4.00;;
13712;SDS011;6928;50.546;7.120;2022-07-23T07:49:12;6.30;;;4.00;;
13712;SDS011;6928;50.546;7.120;2022-07-23T07:51:39;4.93;;;3.42;;
13712;SDS011;6928;50.546;7.120;2022-07-23T07:54:06;6.85;;;4.65;;
13712;SDS011;6928;50.546;7.120;2022-07-23T07:56:32;6.88;;;4.65;;
13712;SDS011;6928;50.546;7.120;2022-07-23T07:59:00;7.50;;;5.18;;
13712;SDS011;6928;50.546;7.120;2022-07-23T08:01:27;5.90;;;4.55;;
13712;SDS011;6928;50.546;7.120;2022-07-23T08:03:54;8.23;;;5.10;;
13712;SDS011;6928;50.546;7.120;2022-07-23T08:06:21;6.75;;;5.00;;
13712;SDS011;6928;50.546;7.120;2022-07-23T08:08:48;6.35;;;3.88;;
13712;SDS011;6928;50.546;7.120;2022-07-23T08:11:15;5.93;;;4.15;;
13712;SDS011;6928;50.546;7.120;2022-07-23T08:13:42;6.07;;;4.63;;
13712;SDS011;6928;50.546;7.120;2022-07-23T08:16:10;8.82;;;4.70;;
13712;SDS011;6928;50.546;7.120;2022-07-23T08:18:37;8.63;;;4.25;;
13712;SDS011;6928;50.546;7.120;2022-07-23T08:21:04;8.52;;;4.53;;
13712;SDS011;6928;50.546;7.120;2022-07-23T08:23:31;8.32;;;4.32;;
13712;SDS011;6928;50.546;7.120;2022-07-23T08:25:59;5.68;;;3.75;;
13712;SDS011;6928;50.546;7.120;2022-07-23T08:28:26;7.93;;;3.95;;
13712;SDS011;6928;50.546;7.120;2022-07-23T08:30:53;9.25;;;4.45;;
13712;SDS011;6928;50.546;7.120;2022-07-23T08:33:21;4.70;;;3.40;;
13712;SDS011;6928;50.546;7.120;2022-07-23T08:35:49;6.38;;;3.92;;
13712;SDS011;6928;50.546;7.120;2022-07-23T08:38:18;6.43;;;3.42;;
13712;SDS011;6928;50.546;7.120;2022-07-23T08:40:48;5.32;;;3.35;;
13712;SDS011;6928;50.546;7.120;2022-07-23T08:43:19;5.18;;;3.40;;
13712;SDS011;6928;50.546;7.120;2022-07-23T08:45:50;4.22;;;3.00;;
13712;SDS011;6928;50.546;7.120;2022-07-23T08:48:23;4.05;;;2.97;;
13712;SDS011;6928;50.546;7.120;2022-07-23T08:50:53;3.95;;;3.20;;
13712;SDS011;6928;50.546;7.120;2022-07-23T08:53:21;3.50;;;2.67;;
13712;SDS011;6928;50.546;7.120;2022-07-23T08:55:51;5.82;;;3.75;;
13712;SDS011;6928;50.546;7.120;2022-07-23T08:58:19;4.82;;;3.25;;
13712;SDS011;6928;50.546;7.120;2022-07-23T09:00:47;4.65;;;3.13;;
13712;SDS011;6928;50.546;7.120;2022-07-23T09:03:14;5.05;;;3.30;;
13712;SDS011;6928;50.546;7.120;2022-07-23T09:05:45;5.25;;;3.58;;
13712;SDS011;6928;50.546;7.120;2022-07-23T09:08:13;6.68;;;2.88;;
13712;SDS011;6928;50.546;7.120;2022-07-23T09:10:49;91.53;;;15.77;;
13712;SDS011;6928;50.546;7.120;2022-07-23T09:13:29;6.30;;;3.25;;
13712;SDS011;6928;50.546;7.120;2022-07-23T09:16:02;4.85;;;3.35;;
13712;SDS011;6928;50.546;7.120;2022-07-23T09:18:33;6.28;;;3.35;;
13712;SDS011;6928;50.546;7.120;2022-07-23T09:23:55;3.60;;;3.22;;
13712;SDS011;6928;50.546;7.120;2022-07-23T09:26:28;4.72;;;2.28;;
13712;SDS011;6928;50.546;7.120;2022-07-23T09:29:00;4.50;;;3.13;;
13712;SDS011;6928;50.546;7.120;2022-07-23T09:31:31;3.88;;;2.70;;
13712;SDS011;6928;50.546;7.120;2022-07-23T09:34:13;4.35;;;2.65;;
13712;SDS011;6928;50.546;7.120;2022-07-23T09:36:46;6.45;;;3.53;;
13712;SDS011;6928;50.546;7.120;2022-07-23T09:39:14;3.88;;;3.10;;
13712;SDS011;6928;50.546;7.120;2022-07-23T09:41:48;3.47;;;2.60;;
13712;SDS011;6928;50.546;7.120;2022-07-23T09:44:15;4.45;;;3.13;;
13712;SDS011;6928;50.546;7.120;2022-07-23T09:46:45;7.35;;;2.92;;
13712;SDS011;6928;50.546;7.120;2022-07-23T09:49:18;3.60;;;2.55;;
13712;SDS011;6928;50.546;7.120;2022-07-23T09:51:50;4.97;;;2.40;;
13712;SDS011;6928;50.546;7.120;2022-07-23T09:54:23;3.17;;;2.60;;
13712;SDS011;6928;50.546;7.120;2022-07-23T09:57:00;3.88;;;2.65;;
13712;SDS011;6928;50.546;7.120;2022-07-23T09:59:33;5.15;;;3.33;;
13712;SDS011;6928;50.546;7.120;2022-07-23T10:02:02;5.70;;;2.60;;
13712;SDS011;6928;50.546;7.120;2022-07-23T10:04:30;3.53;;;2.63;;
13712;SDS011;6928;50.546;7.120;2022-07-23T10:07:01;5.18;;;2.83;;
13712;SDS011;6928;50.546;7.120;2022-07-23T10:09:31;3.63;;;2.78;;
13712;SDS011;6928;50.546;7.120;2022-07-23T10:12:00;2.22;;;2.03;;
13712;SDS011;6928;50.546;7.120;2022-07-23T10:14:56;2.58;;;1.90;;
13712;SDS011;6928;50.546;7.120;2022-07-23T10:17:23;26.38;;;5.70;;
13712;SDS011;6928;50.546;7.120;2022-07-23T10:19:50;2.45;;;1.90;;
13712;SDS011;6928;50.546;7.120;2022-07-23T10:22:20;1.90;;;1.80;;
13712;SDS011;6928;50.546;7.120;2022-07-23T10:24:53;9.75;;;2.10;;
13712;SDS011;6928;50.546;7.120;2022-07-23T10:27:42;4.80;;;3.15;;
13712;SDS011;6928;50.546;7.120;2022-07-23T10:30:22;4.13;;;2.85;;
13712;SDS011;6928;50.546;7.120;2022-07-23T10:33:03;5.38;;;2.65;;
13712;SDS011;6928;50.546;7.120;2022-07-23T10:35:46;5.10;;;2.30;;
13712;SDS011;6928;50.546;7.120;2022-07-23T10:38:21;2.25;;;1.73;;
13712;SDS011;6928;50.546;7.120;2022-07-23T10:40:54;3.33;;;2.00;;
13712;SDS011;6928;50.546;7.120;2022-07-23T10:43:22;2.30;;;2.00;;
13712;SDS011;6928;50.546;7.120;2022-07-23T10:45:49;3.03;;;1.80;;
13712;SDS011;6928;50.546;7.120;2022-07-23T10:48:17;6.85;;;2.80;;
13712;SDS011;6928;50.546;7.120;2022-07-23T10:53:54;3.50;;;2.50;;
13712;SDS011;6928;50.546;7.120;2022-07-23T11:02:43;5.97;;;2.80;;
13712;SDS011;6928;50.546;7.120;2022-07-23T11:05:12;8.23;;;3.67;;
13712;SDS011;6928;50.546;7.120;2022-07-23T11:10:43;2.92;;;2.42;;
13712;SDS011;6928;50.546;7.120;2022-07-23T11:13:29;2.28;;;2.10;;
13712;SDS011;6928;50.546;7.120;2022-07-23T11:18:59;4.55;;;2.67;;
13712;SDS011;6928;50.546;7.120;2022-07-23T11:21:40;4.20;;;2.85;;
13712;SDS011;6928;50.546;7.120;2022-07-23T11:24:14;4.40;;;3.00;;
13712;SDS011;6928;50.546;7.120;2022-07-23T11:26:51;3.47;;;3.10;;
13712;SDS011;6928;50.546;7.120;2022-07-23T11:29:39;3.45;;;3.13;;
13712;SDS011;6928;50.546;7.120;2022-07-23T11:32:23;3.65;;;3.35;;
13712;SDS011;6928;50.546;7.120;2022-07-23T11:34:58;2.95;;;2.53;;
13712;SDS011;6928;50.546;7.120;2022-07-23T11:37:27;2.53;;;2.33;;
13712;SDS011;6928;50.546;7.120;2022-07-23T11:40:00;2.72;;;2.53;;
13712;SDS011;6928;50.546;7.120;2022-07-23T11:42:32;5.10;;;2.95;;
13712;SDS011;6928;50.546;7.120;2022-07-23T11:44:59;5.18;;;2.70;;
13712;SDS011;6928;50.546;7.120;2022-07-23T11:47:26;4.40;;;3.50;;
13712;SDS011;6928;50.546;7.120;2022-07-23T11:49:54;3.20;;;2.58;;
13712;SDS011;6928;50.546;7.120;2022-07-23T11:52:23;3.42;;;2.38;;
13712;SDS011;6928;50.546;7.120;2022-07-23T11:54:57;3.13;;;2.80;;
13712;SDS011;6928;50.546;7.120;2022-07-23T11:57:27;2.47;;;2.33;;
13712;SDS011;6928;50.546;7.120;2022-07-23T12:00:04;2.90;;;2.33;;
13712;SDS011;6928;50.546;7.120;2022-07-23T12:02:35;3.40;;;3.00;;
13712;SDS011;6928;50.546;7.120;2022-07-23T12:05:03;3.42;;;3.05;;
13712;SDS011;6928;50.546;7.120;2022-07-23T12:07:32;6.57;;;3.40;;
13712;SDS011;6928;50.546;7.120;2022-07-23T12:10:02;8.20;;;3.33;;
13712;SDS011;6928;50.546;7.120;2022-07-23T12:12:35;3.30;;;3.00;;
13712;SDS011;6928;50.546;7.120;2022-07-23T12:15:05;7.22;;;3.65;;
13712;SDS011;6928;50.546;7.120;2022-07-23T12:17:34;3.28;;;2.83;;
13712;SDS011;6928;50.546;7.120;2022-07-23T12:20:04;3.20;;;2.90;;
13712;SDS011;6928;50.546;7.120;2022-07-23T12:22:35;3.33;;;3.00;;
13712;SDS011;6928;50.546;7.120;2022-07-23T12:25:05;3.80;;;2.92;;
13712;SDS011;6928;50.546;7.120;2022-07-23T12:27:36;3.13;;;2.58;;
13712;SDS011;6928;50.546;7.120;2022-07-23T12:30:18;2.63;;;2.42;;
13712;SDS011;6928;50.546;7.120;2022-07-23T12:32:49;5.32;;;2.50;;
13712;SDS011;6928;50.546;7.120;2022-07-23T12:35:18;3.30;;;3.00;;
13712;SDS011;6928;50.546;7.120;2022-07-23T12:37:47;4.38;;;2.97;;
13712;SDS011;6928;50.546;7.120;2022-07-23T12:40:21;5.30;;;2.80;;
13712;SDS011;6928;50.546;7.120;2022-07-23T12:42:54;2.95;;;2.75;;
13712;SDS011;6928;50.546;7.120;2022-07-23T12:45:24;3.95;;;2.65;;
13712;SDS011;6928;50.546;7.120;2022-07-23T12:47:53;3.83;;;2.72;;
13712;SDS011;6928;50.546;7.120;2022-07-23T12:50:43;3.20;;;2.55;;
13712;SDS011;6928;50.546;7.120;2022-07-23T12:53:16;3.20;;;2.13;;
13712;SDS011;6928;50.546;7.120;2022-07-23T12:55:44;3.60;;;2.50;;
13712;SDS011;6928;50.546;7.120;2022-07-23T12:58:14;2.95;;;2.55;;
13712;SDS011;6928;50.546;7.120;2022-07-23T13:00:50;4.45;;;2.63;;
13712;SDS011;6928;50.546;7.120;2022-07-23T13:03:29;2.58;;;2.38;;
13712;SDS011;6928;50.546;7.120;2022-07-23T13:05:59;2.95;;;2.25;;
13712;SDS011;6928;50.546;7.120;2022-07-23T13:08:29;2.95;;;2.65;;
13712;SDS011;6928;50.546;7.120;2022-07-23T13:10:58;2.80;;;2.58;;
13712;SDS011;6928;50.546;7.120;2022-07-23T13:13:26;3.80;;;2.78;;
13712;SDS011;6928;50.546;7.120;2022-07-23T13:15:57;4.10;;;2.78;;
13712;SDS011;6928;50.546;7.120;2022-07-23T13:18:25;4.25;;;2.97;;
13712;SDS011;6928;50.546;7.120;2022-07-23T13:20:53;3.55;;;2.90;;
13712;SDS011;6928;50.546;7.120;2022-07-23T13:23:20;2.40;;;2.30;;
13712;SDS011;6928;50.546;7.120;2022-07-23T13:25:47;3.75;;;2.90;;
13712;SDS011;6928;50.546;7.120;2022-07-23T13:28:14;3.75;;;3.10;;
13712;SDS011;6928;50.546;7.120;2022-07-23T13:30:43;4.30;;;3.30;;
13712;SDS011;6928;50.546;7.120;2022-07-23T13:33:12;3.95;;;3.25;;
13712;SDS011;6928;50.546;7.120;2022-07-23T13:35:39;5.93;;;3.50;;
13712;SDS011;6928;50.546;7.120;2022-07-23T13:38:06;4.53;;;3.13;;
13712;SDS011;6928;50.546;7.120;2022-07-23T13:40:36;3.50;;;3.17;;
13712;SDS011;6928;50.546;7.120;2022-07-23T13:43:07;4.70;;;3.45;;
13712;SDS011;6928;50.546;7.120;2022-07-23T13:45:35;4.47;;;3.80;;
13712;SDS011;6928;50.546;7.120;2022-07-23T13:48:03;7.25;;;3.67;;
13712;SDS011;6928;50.546;7.120;2022-07-23T13:50:32;4.53;;;3.63;;
13712;SDS011;6928;50.546;7.120;2022-07-23T13:53:00;4.28;;;3.17;;
13712;SDS011;6928;50.546;7.120;2022-07-23T13:55:29;4.72;;;3.25;;
13712;SDS011;6928;50.546;7.120;2022-07-23T13:57:55;4.72;;;3.53;;
13712;SDS011;6928;50.546;7.120;2022-07-23T14:00:23;3.67;;;3.38;;
13712;SDS011;6928;50.546;7.120;2022-07-23T14:02:50;3.40;;;3.10;;
13712;SDS011;6928;50.546;7.120;2022-07-23T14:05:17;5.60;;;2.97;;
13712;SDS011;6928;50.546;7.120;2022-07-23T14:07:45;3.30;;;3.00;;
13712;SDS011;6928;50.546;7.120;2022-07-23T14:10:14;4.47;;;3.20;;
13712;SDS011;6928;50.546;7.120;2022-07-23T14:12:43;4.72;;;3.10;;
13712;SDS011;6928;50.546;7.120;2022-07-23T14:15:10;3.20;;;2.92;;
13712;SDS011;6928;50.546;7.120;2022-07-23T14:17:36;3.10;;;2.80;;
13712;SDS011;6928;50.546;7.120;2022-07-23T14:20:05;5.85;;;3.03;;
13712;SDS011;6928;50.546;7.120;2022-07-23T14:22:33;3.67;;;3.28;;
13712;SDS011;6928;50.546;7.120;2022-07-23T14:25:02;3.97;;;2.45;;
13712;SDS011;6928;50.546;7.120;2022-07-23T14:27:31;3.05;;;2.83;;
13712;SDS011;6928;50.546;7.120;2022-07-23T14:29:58;2.92;;;2.63;;
13712;SDS011;6928;50.546;7.120;2022-07-23T14:32:25;4.15;;;3.20;;
13712;SDS011;6928;50.546;7.120;2022-07-23T14:34:52;2.60;;;2.40;;
13712;SDS011;6928;50.546;7.120;2022-07-23T14:37:19;3.40;;;3.03;;
13712;SDS011;6928;50.546;7.120;2022-07-23T14:39:46;5.13;;;3.20;;
13712;SDS011;6928;50.546;7.120;2022-07-23T14:42:14;4.40;;;2.90;;
13712;SDS011;6928;50.546;7.120;2022-07-23T14:44:41;4.13;;;2.70;;
13712;SDS011;6928;50.546;7.120;2022-07-23T14:47:08;4.53;;;2.72;;
13712;SDS011;6928;50.546;7.120;2022-07-23T14:49:35;4.43;;;3.58;;
13712;SDS011;6928;50.546;7.120;2022-07-23T14:52:03;5.50;;;3.30;;
13712;SDS011;6928;50.546;7.120;2022-07-23T14:54:31;3.08;;;2.88;;
13712;SDS011;6928;50.546;7.120;2022-07-23T14:57:00;4.82;;;3.15;;
13712;SDS011;6928;50.546;7.120;2022-07-23T14:59:29;3.08;;;2.72;;
13712;SDS011;6928;50.546;7.120;2022-07-23T15:01:56;6.10;;;3.08;;
13712;SDS011;6928;50.546;7.120;2022-07-23T15:04:24;4.13;;;3.25;;
13712;SDS011;6928;50.546;7.120;2022-07-23T15:06:51;3.30;;;2.90;;
13712;SDS011;6928;50.546;7.120;2022-07-23T15:09:19;3.22;;;2.92;;
13712;SDS011;6928;50.546;7.120;2022-07-23T15:11:46;4.60;;;3.33;;
13712;SDS011;6928;50.546;7.120;2022-07-23T15:14:13;4.40;;;2.95;;
13712;SDS011;6928;50.546;7.120;2022-07-23T15:16:41;5.63;;;2.88;;
13712;SDS011;6928;50.546;7.120;2022-07-23T15:19:09;3.33;;;3.03;;
13712;SDS011;6928;50.546;7.120;2022-07-23T15:21:36;5.43;;;3.25;;